Accueil
METAR-TAF:

METAR-TAF

Aéroports :

Aéroport de Novossibirsk-Tolmatchevo

Novossibirsk, Russie

latitude: 55-01N, longitude: 082-38E, altitude: 111 m

Observation

Le bulletin a été fait il y a 10 minutes, à 23:00 UTC
Vent 4 kt de nord-ouest
Température 11°C
Humidité 100%
Pression 1008 hPa
Visibilité: 9000 m

METAR: UNNT 162300Z 31002MPS 9000 NSC 11/11 Q1008 R25/090070 R16/090070 NOSIG RMK QFE746/0995

Heure: 06:10 (23:10 UTC)

Prévision

Le bulletin a été fait il y a 3 heures et 10 minutes, à 20:00 UTC
Prévision valable du 16 à 21 UTC au 17 à 21 UTC
Vent 6 kt de nord/nord-est avec des rafales jusqu'à 16 kt
Visibilité 10 km ou plus
pas de nuages en-dessous de 1500 mètres et pas de cumulonimbus.
Temporairement
du 16 à 21 UTC au 16 à 24 UTC
Visibilité: 0600 m
brouillard, fumée

TAF: UNNT 162000Z 1621/1721 03003G08MPS CAVOK TEMPO 1621/1624 0600 FG FU

Observations et prévisions météorologiques de plus de 4000 aéroports (messages METAR et TAF).

Les stations disponibles sont représentées par des disques jaunes et rouges sur la carte.

Passer la souris dessus pour voir le nom de la station.

Cliquer dessus pour voir les observations et prévisions météorologiques.

Pour changer de carte: cliquez sur les boutons verts avec une croix noire pour zoomer, sur le bouton vert avec un tiret pour effectuer un zoom arrière, ou sur les flèches vertes pour les cartes adjacentes.


METAR-TAF: